createdAt,value
2019-04-25T00:02:13.930Z,8.65
2019-04-25T00:04:42.348Z,8.46
2019-04-25T00:07:07.371Z,8.50
2019-04-25T00:09:40.307Z,8.27
2019-04-25T00:12:06.609Z,8.50
2019-04-25T00:14:33.329Z,8.89
2019-04-25T00:17:01.622Z,9.12
2019-04-25T00:19:26.810Z,9.28
2019-04-25T00:22:02.011Z,8.42
2019-04-25T00:24:34.105Z,9.01
2019-04-25T00:27:02.211Z,8.21
2019-04-25T00:29:27.594Z,7.96
2019-04-25T00:31:54.335Z,8.83
2019-04-25T00:34:21.844Z,8.38
2019-04-25T00:36:48.656Z,8.10
2019-04-25T00:39:14.530Z,8.16
2019-04-25T00:41:44.106Z,8.24
2019-04-25T00:44:08.002Z,8.34
2019-04-25T00:46:34.759Z,8.35
2019-04-25T00:49:02.537Z,8.18
2019-04-25T00:51:28.239Z,8.03
2019-04-25T00:53:54.961Z,7.61
2019-04-25T00:56:22.380Z,7.68
2019-04-25T00:59:08.082Z,7.65
2019-04-25T01:01:45.600Z,7.70
2019-04-25T01:04:10.025Z,7.54
2019-04-25T01:06:36.734Z,7.53
2019-04-25T01:09:05.494Z,7.69
2019-04-25T01:11:32.205Z,7.70
2019-04-25T01:13:58.937Z,7.78
2019-04-25T01:16:25.653Z,7.74
2019-04-25T01:18:54.803Z,7.92
2019-04-25T01:21:20.787Z,7.80
2019-04-25T01:23:47.537Z,7.53
2019-04-25T01:26:14.294Z,8.13
2019-04-25T01:28:41.051Z,7.62
2019-04-25T01:31:08.880Z,7.60
2019-04-25T01:33:35.625Z,7.44
2019-04-25T01:36:08.402Z,7.81
2019-04-25T01:38:45.602Z,7.36
2019-04-25T01:41:18.062Z,7.19
2019-04-25T01:43:52.825Z,7.22
2019-04-25T01:46:16.410Z,7.05
2019-04-25T01:48:43.391Z,7.00
2019-04-25T01:51:09.874Z,7.18
2019-04-25T01:53:36.629Z,6.94
2019-04-25T01:56:07.523Z,6.42
2019-04-25T01:58:30.112Z,6.23
2019-04-25T02:00:57.336Z,6.44
2019-04-25T02:03:27.001Z,6.65
2019-04-25T02:05:51.300Z,6.71
2019-04-25T02:08:17.045Z,6.68
2019-04-25T02:10:44.167Z,6.96
2019-04-25T02:13:11.326Z,6.63
2019-04-25T02:15:38.042Z,6.73
2019-04-25T02:18:04.791Z,6.66
2019-04-25T02:20:31.518Z,6.67
2019-04-25T02:22:58.274Z,7.00
2019-04-25T02:25:24.986Z,7.25
2019-04-25T02:27:52.720Z,6.88
2019-04-25T02:30:18.470Z,6.97
2019-04-25T02:32:45.226Z,6.70
2019-04-25T02:35:11.974Z,7.33
2019-04-25T02:37:38.682Z,7.61
2019-04-25T02:40:07.888Z,7.03
2019-04-25T02:42:34.385Z,7.12
2019-04-25T02:45:11.110Z,7.14
2019-04-25T02:47:58.114Z,7.33
2019-04-25T02:50:34.372Z,7.94
2019-04-25T02:53:14.001Z,7.39
2019-04-25T02:55:38.826Z,7.47
2019-04-25T02:58:10.057Z,7.36
2019-04-25T03:00:47.643Z,7.04
2019-04-25T03:02:59.202Z,6.97
2019-04-25T03:05:25.772Z,6.75
2019-04-25T03:07:54.531Z,6.69
2019-04-25T03:10:19.247Z,6.93
2019-04-25T03:12:45.964Z,7.03
2019-04-25T03:15:14.475Z,6.92
2019-04-25T03:17:39.456Z,6.77
2019-04-25T03:20:15.706Z,6.95
2019-04-25T03:22:44.367Z,7.01
2019-04-25T03:25:13.086Z,7.12
2019-04-25T03:27:36.021Z,7.13
2019-04-25T03:30:04.419Z,6.88
2019-04-25T03:32:29.940Z,6.72
2019-04-25T03:34:56.686Z,6.51
2019-04-25T03:37:23.484Z,6.79
2019-04-25T03:39:50.142Z,6.70
2019-04-25T03:42:16.873Z,6.47
2019-04-25T03:44:43.884Z,6.43
2019-04-25T03:47:10.338Z,6.38
2019-04-25T03:49:37.081Z,6.38
2019-04-25T03:52:05.230Z,6.52
2019-04-25T03:54:30.621Z,6.58
2019-04-25T03:56:57.350Z,6.36
2019-04-25T03:59:24.100Z,6.47
2019-04-25T04:01:50.830Z,6.80
2019-04-25T04:04:17.574Z,6.48
2019-04-25T04:06:44.406Z,6.36
2019-04-25T04:09:11.836Z,6.32
2019-04-25T04:11:37.870Z,6.29
2019-04-25T04:14:05.760Z,6.23
2019-04-25T04:16:34.278Z,6.30
2019-04-25T04:19:01.278Z,6.02
2019-04-25T04:21:38.610Z,6.07
2019-04-25T04:24:25.488Z,6.13
2019-04-25T04:27:09.144Z,6.27
2019-04-25T04:29:34.218Z,6.35
2019-04-25T04:32:00.940Z,6.65
2019-04-25T04:34:27.698Z,6.84
2019-04-25T04:36:54.430Z,6.85
2019-04-25T04:39:21.158Z,7.13
2019-04-25T04:41:47.926Z,7.11
2019-04-25T04:44:15.630Z,7.49
2019-04-25T04:46:41.397Z,7.83
2019-04-25T04:49:08.776Z,7.82
2019-04-25T04:51:34.859Z,7.77
2019-04-25T04:54:03.302Z,8.69
2019-04-25T04:56:28.299Z,9.01
2019-04-25T04:58:55.014Z,8.69
2019-04-25T05:01:21.745Z,9.01
2019-04-25T05:03:54.730Z,9.12
2019-04-25T05:06:29.185Z,9.08
2019-04-25T05:09:03.315Z,9.06
2019-04-25T05:11:28.733Z,8.65
2019-04-25T05:13:55.462Z,8.18
2019-04-25T05:16:23.693Z,8.11
2019-04-25T05:18:48.917Z,8.16
2019-04-25T05:21:16.253Z,8.70
2019-04-25T05:23:44.024Z,8.83
2019-04-25T05:26:09.182Z,9.02
2019-04-25T05:28:35.897Z,9.09
2019-04-25T05:31:10.737Z,9.45
2019-04-25T05:33:37.453Z,9.52
2019-04-25T05:36:05.925Z,9.71
2019-04-25T05:38:30.917Z,10.14
2019-04-25T05:41:03.865Z,10.34
2019-04-25T05:43:28.830Z,10.72
2019-04-25T05:45:55.570Z,10.63
2019-04-25T05:48:23.606Z,10.72
2019-04-25T05:50:49.041Z,10.78
2019-04-25T05:53:16.310Z,10.70
2019-04-25T05:55:44.035Z,10.50
2019-04-25T05:58:09.222Z,10.52
2019-04-25T06:00:36.077Z,10.65
2019-04-25T06:03:03.627Z,10.91
2019-04-25T06:05:29.786Z,11.03
2019-04-25T06:07:56.518Z,11.27
2019-04-25T06:10:31.542Z,11.23
2019-04-25T06:13:03.994Z,11.69
2019-04-25T06:15:30.742Z,11.64
2019-04-25T06:18:11.486Z,11.40
2019-04-25T06:20:38.215Z,11.69
2019-04-25T06:23:10.734Z,11.61
2019-04-25T06:25:39.828Z,11.46
2019-04-25T06:28:04.818Z,11.45
2019-04-25T06:30:31.726Z,11.60
2019-04-25T06:32:58.767Z,11.62
2019-04-25T06:35:27.470Z,11.92
2019-04-25T06:37:53.681Z,11.91
2019-04-25T06:40:20.518Z,11.82
2019-04-25T06:42:46.794Z,12.09
2019-04-25T06:45:34.421Z,12.13
2019-04-25T06:48:09.401Z,12.27
2019-04-25T06:50:36.127Z,12.44
2019-04-25T06:53:03.519Z,12.50
2019-04-25T06:55:30.239Z,12.53
2019-04-25T06:58:08.717Z,12.41
2019-04-25T07:00:24.950Z,12.14
2019-04-25T07:02:49.882Z,12.02
2019-04-25T07:05:26.532Z,12.22
2019-04-25T07:07:45.290Z,12.44
2019-04-25T07:10:10.219Z,12.44
2019-04-25T07:12:37.097Z,12.51
2019-04-25T07:15:04.117Z,12.46
2019-04-25T07:17:30.866Z,12.53
2019-04-25T07:19:57.621Z,12.92
2019-04-25T07:22:25.637Z,13.15
2019-04-25T07:24:51.074Z,13.17
2019-04-25T07:27:39.378Z,13.08
2019-04-25T07:30:13.527Z,13.65
2019-04-25T07:32:43.996Z,13.85
2019-04-25T07:35:10.016Z,14.09
2019-04-25T07:37:39.060Z,13.96
2019-04-25T07:40:04.725Z,14.09
2019-04-25T07:42:31.832Z,14.41
2019-04-25T07:44:58.287Z,14.72
2019-04-25T07:47:26.042Z,15.22
2019-04-25T07:49:51.677Z,15.52
2019-04-25T07:52:18.414Z,16.01
2019-04-25T07:54:45.122Z,16.39
2019-04-25T07:57:13.491Z,16.65
2019-04-25T07:59:38.818Z,16.77
2019-04-25T08:02:05.314Z,17.17
2019-04-25T08:04:32.053Z,16.98
2019-04-25T08:06:58.765Z,16.70
2019-04-25T08:09:25.517Z,16.55
2019-04-25T08:11:53.202Z,16.68
2019-04-25T08:14:38.592Z,16.79
2019-04-25T08:17:05.577Z,16.43
2019-04-25T08:19:33.508Z,16.58
2019-04-25T08:21:59.130Z,16.44
2019-04-25T08:24:26.861Z,16.57
2019-04-25T08:26:53.611Z,16.76
2019-04-25T08:29:22.987Z,16.53
2019-04-25T08:31:47.767Z,16.74
2019-04-25T08:34:14.674Z,16.73
2019-04-25T08:36:41.507Z,16.65
2019-04-25T08:39:08.587Z,16.51
2019-04-25T08:41:36.067Z,16.83
2019-04-25T08:44:02.047Z,17.48
2019-04-25T08:46:28.782Z,17.75
2019-04-25T08:49:06.152Z,18.03
2019-04-25T08:51:33.903Z,18.24
2019-04-25T08:54:03.808Z,18.04
2019-04-25T08:56:31.880Z,18.88
2019-04-25T08:59:17.197Z,18.74
2019-04-25T09:01:48.501Z,18.62
2019-04-25T09:04:25.462Z,18.60
2019-04-25T09:06:50.659Z,18.55
2019-04-25T09:09:17.377Z,18.61
2019-04-25T09:11:46.696Z,18.63
2019-04-25T09:14:10.834Z,19.05
2019-04-25T09:16:37.897Z,18.76
2019-04-25T09:19:05.542Z,19.23
2019-04-25T09:21:34.133Z,19.33
2019-04-25T09:23:59.069Z,19.17
2019-04-25T09:26:25.881Z,18.82
2019-04-25T09:28:53.628Z,19.13
2019-04-25T09:31:19.337Z,19.47
2019-04-25T09:33:46.752Z,19.67
2019-04-25T09:36:14.143Z,19.72
2019-04-25T09:38:39.570Z,19.40
2019-04-25T09:41:06.298Z,19.46
2019-04-25T09:43:33.486Z,19.64
2019-04-25T09:46:06.477Z,19.73
2019-04-25T09:48:54.253Z,19.85
2019-04-25T09:51:24.342Z,20.37
2019-04-25T09:53:55.594Z,20.06
2019-04-25T09:56:27.856Z,20.19
2019-04-25T09:58:57.765Z,20.14
2019-04-25T10:01:24.858Z,20.35
2019-04-25T10:03:51.627Z,20.68
2019-04-25T10:06:18.359Z,20.93
2019-04-25T10:08:46.028Z,21.85
2019-04-25T10:11:11.826Z,21.97
2019-04-25T10:13:38.594Z,21.05
2019-04-25T10:16:06.310Z,20.70
2019-04-25T10:18:33.541Z,20.79
2019-04-25T10:20:59.900Z,20.43
2019-04-25T10:23:26.649Z,20.94
2019-04-25T10:25:53.745Z,21.42
2019-04-25T10:28:20.135Z,21.40
2019-04-25T10:30:46.938Z,21.69
2019-04-25T10:33:14.230Z,21.68
2019-04-25T10:35:48.021Z,21.38
2019-04-25T10:38:07.105Z,21.06
2019-04-25T10:40:33.915Z,21.23
2019-04-25T10:43:00.598Z,21.36
2019-04-25T10:45:27.335Z,21.43
2019-04-25T10:47:55.247Z,21.58
2019-04-25T10:50:20.870Z,21.37
2019-04-25T10:52:48.362Z,21.13
2019-04-25T10:55:14.358Z,20.86
2019-04-25T10:57:41.090Z,21.04
2019-04-25T11:00:09.661Z,21.20
2019-04-25T11:02:36.018Z,21.16
2019-04-25T11:05:07.238Z,21.39
2019-04-25T11:07:34.074Z,21.49
2019-04-25T11:10:00.729Z,21.34
2019-04-25T11:12:27.478Z,21.44
2019-04-25T11:14:56.116Z,21.54
2019-04-25T11:17:20.958Z,22.15
2019-04-25T11:19:47.715Z,22.05
2019-04-25T11:22:15.596Z,22.22
2019-04-25T11:24:41.636Z,22.06
2019-04-25T11:27:07.922Z,22.19
2019-04-25T11:29:34.674Z,22.51
2019-04-25T11:32:01.420Z,22.97
2019-04-25T11:34:28.198Z,23.07
2019-04-25T11:36:55.013Z,23.04
2019-04-25T11:39:25.345Z,22.92
2019-04-25T11:41:52.073Z,22.63
2019-04-25T11:44:19.382Z,23.15
2019-04-25T11:46:46.607Z,23.35
2019-04-25T11:49:13.110Z,23.20
2019-04-25T11:51:39.150Z,22.86
2019-04-25T11:54:05.890Z,22.83
2019-04-25T11:56:34.211Z,23.09
2019-04-25T11:58:59.354Z,22.86
2019-04-25T12:01:26.090Z,22.90
2019-04-25T12:03:52.826Z,22.98
2019-04-25T12:06:19.565Z,23.15
2019-04-25T12:08:47.530Z,23.20
2019-04-25T12:11:13.889Z,23.38
2019-04-25T12:13:39.783Z,23.65
2019-04-25T12:16:06.527Z,23.47
2019-04-25T12:18:33.910Z,23.32
2019-04-25T12:20:59.991Z,23.82
2019-04-25T12:23:26.710Z,23.91
2019-04-25T12:25:54.376Z,23.83
2019-04-25T12:28:20.195Z,23.96
2019-04-25T12:30:47.429Z,24.08
2019-04-25T12:33:21.190Z,24.02
2019-04-25T12:35:40.506Z,24.20
2019-04-25T12:38:07.220Z,24.75
2019-04-25T12:40:34.319Z,24.44
2019-04-25T12:43:00.687Z,24.84
2019-04-25T12:45:35.699Z,25.23
2019-04-25T12:48:04.080Z,25.18
2019-04-25T12:50:29.314Z,25.07
2019-04-25T12:52:56.112Z,25.31
2019-04-25T12:55:23.947Z,25.50
2019-04-25T12:57:49.538Z,25.33
2019-04-25T13:00:18.682Z,25.31
2019-04-25T13:02:45.406Z,25.50
2019-04-25T13:05:12.147Z,25.31
2019-04-25T13:07:38.922Z,25.43
2019-04-25T13:10:05.752Z,25.49
2019-04-25T13:12:33.239Z,25.79
2019-04-25T13:14:59.171Z,26.00
2019-04-25T13:17:25.907Z,26.04
2019-04-25T13:19:54.047Z,26.12
2019-04-25T13:22:19.415Z,26.43
2019-04-25T13:24:46.142Z,26.48
2019-04-25T13:27:19.565Z,26.68
2019-04-25T13:29:57.267Z,26.70
2019-04-25T13:32:32.510Z,26.60
2019-04-25T13:34:59.530Z,26.68
2019-04-25T13:37:26.274Z,26.52
2019-04-25T13:39:54.100Z,26.77
2019-04-25T13:42:19.760Z,26.92
2019-04-25T13:44:46.490Z,26.59
2019-04-25T13:47:14.051Z,26.52
2019-04-25T13:49:39.962Z,26.59
2019-04-25T13:52:06.792Z,26.74
2019-04-25T13:54:34.809Z,26.79
2019-04-25T13:57:00.266Z,26.89
2019-04-25T13:59:27.004Z,26.60
2019-04-25T14:01:54.184Z,26.54
2019-04-25T14:04:20.978Z,26.48
2019-04-25T14:06:47.742Z,26.71
2019-04-25T14:09:16.658Z,27.19
2019-04-25T14:11:44.128Z,27.40
2019-04-25T14:14:10.170Z,27.65
2019-04-25T14:16:46.857Z,27.41
2019-04-25T14:19:34.833Z,27.41
2019-04-25T14:22:02.020Z,27.46
2019-04-25T14:24:30.754Z,27.33
2019-04-25T14:26:55.497Z,27.07
2019-04-25T14:29:22.413Z,27.04
2019-04-25T14:31:48.983Z,27.03
2019-04-25T14:34:15.705Z,27.29
2019-04-25T14:36:44.206Z,27.00
2019-04-25T14:39:09.190Z,26.81
2019-04-25T14:41:35.919Z,26.69
2019-04-25T14:44:02.635Z,26.52
2019-04-25T14:46:29.936Z,26.84
2019-04-25T14:48:56.122Z,26.68
2019-04-25T14:51:23.000Z,27.10
2019-04-25T14:53:49.642Z,27.19
2019-04-25T14:56:36.007Z,27.28
2019-04-25T14:59:02.726Z,26.79
2019-04-25T15:01:30.143Z,26.62
2019-04-25T15:03:56.206Z,26.53
2019-04-25T15:06:23.387Z,26.54
2019-04-25T15:08:49.677Z,26.68
2019-04-25T15:11:16.429Z,26.79
2019-04-25T15:13:43.146Z,26.82
2019-04-25T15:16:10.008Z,26.80
2019-04-25T15:18:46.572Z,26.72
2019-04-25T15:21:03.478Z,26.69
2019-04-25T15:23:30.202Z,26.72
2019-04-25T15:25:56.946Z,26.76
2019-04-25T15:28:24.485Z,26.91
2019-04-25T15:30:51.166Z,26.96
2019-04-25T15:33:17.136Z,26.87
2019-04-25T15:35:48.399Z,27.12
2019-04-25T15:38:19.864Z,27.35
2019-04-25T15:40:51.702Z,25.84
2019-04-25T15:43:27.692Z,25.11
2019-04-25T15:46:00.126Z,23.78
2019-04-25T15:48:26.854Z,23.57
2019-04-25T15:50:54.237Z,23.79
2019-04-25T15:53:21.003Z,24.08
2019-04-25T15:55:47.745Z,24.15
2019-04-25T15:58:14.490Z,24.19
2019-04-25T16:00:41.258Z,24.09
2019-04-25T16:03:08.006Z,24.05
2019-04-25T16:05:35.595Z,23.04
2019-04-25T16:08:01.783Z,22.86
2019-04-25T16:10:28.508Z,22.39
2019-04-25T16:12:55.261Z,22.14
2019-04-25T16:15:21.981Z,21.83
2019-04-25T16:17:48.730Z,21.57
2019-04-25T16:20:15.614Z,21.25
2019-04-25T16:22:42.361Z,21.06
2019-04-25T16:25:09.098Z,20.84
2019-04-25T16:27:36.604Z,20.68
2019-04-25T16:30:02.802Z,20.63
2019-04-25T16:32:30.362Z,20.55
2019-04-25T16:34:56.307Z,20.34
2019-04-25T16:37:23.042Z,20.39
2019-04-25T16:39:49.786Z,20.25
2019-04-25T16:42:16.531Z,20.08
2019-04-25T16:44:43.290Z,19.88
2019-04-25T16:47:10.033Z,19.79
2019-04-25T16:49:36.958Z,19.57
2019-04-25T16:52:03.508Z,19.33
2019-04-25T16:54:30.429Z,19.21
2019-04-25T16:56:56.999Z,18.91
2019-04-25T16:59:23.754Z,18.73
2019-04-25T17:01:50.507Z,18.49
2019-04-25T17:04:19.818Z,18.61
2019-04-25T17:06:43.991Z,18.48
2019-04-25T17:09:10.751Z,18.56
2019-04-25T17:11:37.721Z,18.45
2019-04-25T17:14:11.275Z,18.52
2019-04-25T17:16:43.762Z,18.27
2019-04-25T17:19:15.257Z,18.20
2019-04-25T17:21:42.784Z,18.08
2019-04-25T17:26:47.982Z,17.74
2019-04-25T17:29:16.762Z,17.63
2019-04-25T17:31:54.075Z,17.60
2019-04-25T17:34:32.089Z,17.42
2019-04-25T17:37:04.545Z,17.06
2019-04-25T17:39:35.452Z,16.91
2019-04-25T17:42:01.562Z,16.84
2019-04-25T17:44:28.301Z,16.44
2019-04-25T17:47:05.795Z,16.23
2019-04-25T17:49:21.790Z,16.15
2019-04-25T17:51:48.654Z,16.00
2019-04-25T17:54:15.389Z,16.00
2019-04-25T17:56:42.985Z,16.08
2019-04-25T17:59:08.863Z,15.98
2019-04-25T18:01:35.993Z,15.95
2019-04-25T18:04:02.434Z,15.85
2019-04-25T18:06:29.286Z,15.79
2019-04-25T18:08:56.021Z,15.72
2019-04-25T18:11:22.841Z,15.62
2019-04-25T18:13:49.586Z,15.53
2019-04-25T18:16:40.315Z,15.37
2019-04-25T18:19:10.267Z,15.19
2019-04-25T18:21:37.016Z,15.05
2019-04-25T18:24:15.428Z,15.01
2019-04-25T18:26:47.497Z,14.93
2019-04-25T18:29:14.679Z,14.82
2019-04-25T18:31:41.602Z,14.74
2019-04-25T18:34:10.264Z,14.57
2019-04-25T18:36:43.838Z,14.48
2019-04-25T18:39:31.143Z,14.38
2019-04-25T18:42:08.002Z,14.20
2019-04-25T18:44:32.326Z,14.11
2019-04-25T18:46:59.062Z,14.02
2019-04-25T18:49:25.786Z,13.99
2019-04-25T18:51:57.603Z,13.96
2019-04-25T18:54:41.149Z,14.01
2019-04-25T18:57:14.538Z,13.92
2019-04-25T18:59:48.224Z,13.83
2019-04-25T19:02:37.533Z,13.83
2019-04-25T19:05:23.633Z,13.86
2019-04-25T19:07:50.395Z,13.85
2019-04-25T19:10:17.130Z,13.71
2019-04-25T19:12:43.891Z,13.76
2019-04-25T19:15:10.611Z,13.62
2019-04-25T19:17:37.342Z,13.63
2019-04-25T19:20:04.122Z,13.49
2019-04-25T19:22:30.842Z,13.50
2019-04-25T19:24:57.645Z,13.36
2019-04-25T19:27:24.418Z,13.37
2019-04-25T19:29:52.558Z,13.35
2019-04-25T19:32:17.910Z,13.50
2019-04-25T19:34:44.677Z,13.33
2019-04-25T19:37:11.382Z,13.21
2019-04-25T19:39:38.450Z,13.17
2019-04-25T19:42:11.966Z,13.18
2019-04-25T19:44:38.695Z,13.13
2019-04-25T19:47:05.434Z,13.16
2019-04-25T19:49:32.150Z,13.10
2019-04-25T19:51:58.905Z,13.17
2019-04-25T19:54:25.630Z,13.16
2019-04-25T19:56:52.390Z,13.29
2019-04-25T19:59:19.350Z,13.23
2019-04-25T20:01:46.063Z,13.22
2019-04-25T20:04:18.585Z,13.32
2019-04-25T20:06:51.605Z,13.21
2019-04-25T20:09:35.250Z,13.11
2019-04-25T20:12:02.058Z,13.06
2019-04-25T20:14:28.774Z,13.00
2019-04-25T20:16:55.497Z,12.92
2019-04-25T20:19:22.242Z,13.13
2019-04-25T20:21:49.971Z,13.46
2019-04-25T20:24:15.898Z,13.22
2019-04-25T20:26:42.614Z,13.06
2019-04-25T20:29:09.370Z,12.83
2019-04-25T20:31:36.143Z,12.82
2019-04-25T20:34:06.017Z,12.82
2019-04-25T20:36:29.634Z,12.88
2019-04-25T20:38:56.364Z,12.85
2019-04-25T20:41:23.078Z,12.79
2019-04-25T20:43:50.707Z,12.74
2019-04-25T20:46:16.546Z,12.72
2019-04-25T20:48:43.278Z,12.81
2019-04-25T20:51:10.012Z,12.74
2019-04-25T20:53:36.746Z,12.68
2019-04-25T20:56:03.466Z,12.73
2019-04-25T20:58:30.205Z,12.57
2019-04-25T21:00:57.798Z,12.48
2019-04-25T21:03:23.684Z,12.41
2019-04-25T21:05:51.020Z,12.36
2019-04-25T21:08:17.532Z,12.46
2019-04-25T21:10:44.355Z,12.36
2019-04-25T21:13:13.502Z,12.47
2019-04-25T21:15:46.986Z,12.65
2019-04-25T21:18:19.281Z,12.49
2019-04-25T21:20:46.010Z,12.39
2019-04-25T21:23:12.750Z,12.26
2019-04-25T21:25:39.473Z,12.30
2019-04-25T21:28:06.277Z,12.32
2019-04-25T21:30:33.062Z,12.33
2019-04-25T21:32:59.779Z,12.10
2019-04-25T21:35:26.548Z,12.02
2019-04-25T21:37:53.578Z,12.06
2019-04-25T21:40:41.774Z,12.13
2019-04-25T21:43:11.745Z,12.20
2019-04-25T21:45:38.610Z,12.16
2019-04-25T21:48:05.333Z,12.26
2019-04-25T21:50:32.114Z,12.22
2019-04-25T21:52:59.154Z,12.28
2019-04-25T21:55:25.583Z,12.46
2019-04-25T21:57:52.294Z,12.60
2019-04-25T22:00:37.098Z,12.62
2019-04-25T22:03:04.597Z,12.56
2019-04-25T22:05:30.595Z,12.69
2019-04-25T22:07:58.293Z,12.74
2019-04-25T22:10:24.073Z,12.67
2019-04-25T22:12:50.815Z,12.65
2019-04-25T22:15:17.549Z,12.68
2019-04-25T22:17:44.270Z,12.64
2019-04-25T22:20:11.018Z,12.72
2019-04-25T22:22:37.741Z,12.54
2019-04-25T22:25:04.696Z,12.41
2019-04-25T22:27:32.052Z,12.43
2019-04-25T22:29:59.958Z,12.81
2019-04-25T22:32:30.786Z,12.63
2019-04-25T22:35:06.070Z,12.43
2019-04-25T22:37:32.805Z,12.40
2019-04-25T22:39:59.872Z,12.19
2019-04-25T22:42:26.284Z,12.01
2019-04-25T22:44:53.038Z,11.97
2019-04-25T22:47:19.778Z,12.12
2019-04-25T22:49:46.525Z,12.09
2019-04-25T22:52:13.245Z,12.13
2019-04-25T22:54:39.990Z,12.01
2019-04-25T22:57:06.710Z,11.82
2019-04-25T22:59:33.423Z,11.88
2019-04-25T23:02:05.438Z,11.86
2019-04-25T23:04:39.737Z,11.88
2019-04-25T23:07:06.506Z,11.82
2019-04-25T23:09:33.296Z,11.63
2019-04-25T23:12:00.054Z,11.66
2019-04-25T23:14:26.786Z,12.13
2019-04-25T23:16:53.538Z,12.38
2019-04-25T23:19:20.258Z,11.77
2019-04-25T23:21:46.998Z,11.61
2019-04-25T23:24:13.989Z,11.96
2019-04-25T23:26:46.318Z,12.14
2019-04-25T23:29:14.583Z,11.43
2019-04-25T23:31:40.866Z,11.45
2019-04-25T23:34:08.723Z,10.84
2019-04-25T23:36:34.365Z,10.64
2019-04-25T23:39:01.090Z,10.33
2019-04-25T23:41:27.831Z,10.22
2019-04-25T23:43:54.547Z,10.15
2019-04-25T23:46:21.337Z,9.90
2019-04-25T23:48:48.077Z,9.88
2019-04-25T23:51:15.356Z,9.90
2019-04-25T23:53:41.556Z,10.01
2019-04-25T23:56:08.936Z,10.24
2019-04-25T23:58:35.035Z,10.38
